Terminal Aerodrome Forecast
Issued by NWS Charleston, WV

Home | Current Version | Previous Version | Text Only | Print | Product List | Glossary On
Versions: 1 2 3 4 5 6 7 8 9 10 11 12 13 14 15 16 17 18 19 20 21 22 23 24 25
000
FTUS41 KRLX 040900 AAA
TAFPKB
TAF AMD
KPKB 040914Z 0409/0506 30007KT 6SM -RA OVC025
     FM041500 31006KT 2SM +RA BR OVC015
     FM042100 32005KT 3SM -RAPL OVC010
     FM042300 33006KT 2SM -SNPL BR OVC008
     FM050300 33007KT 1SM -SN BR SCT001 OVC008=

USA.gov is the U.S. government's official web portal to all federal, state and local government web resources and services.